createdAt,value
2017-06-01T00:00:58.293Z,1016.29
2017-06-01T00:01:58.281Z,1016.31
2017-06-01T00:02:58.261Z,1016.34
2017-06-01T00:03:58.244Z,1016.32
2017-06-01T00:04:58.230Z,1016.31
2017-06-01T00:05:58.210Z,1016.32
2017-06-01T00:06:58.196Z,1016.33
2017-06-01T00:07:58.182Z,1016.33
2017-06-01T00:08:58.164Z,1016.31
2017-06-01T00:09:58.146Z,1016.29
2017-06-01T00:10:58.131Z,1016.28
2017-06-01T00:11:58.116Z,1016.26
2017-06-01T00:12:58.104Z,1016.27
2017-06-01T00:13:58.080Z,1016.32
2017-06-01T00:14:58.064Z,1016.33
2017-06-01T00:15:58.050Z,1016.31
2017-06-01T00:16:58.033Z,1016.33
2017-06-01T00:17:58.021Z,1016.34
2017-06-01T00:18:58.000Z,1016.33
2017-06-01T00:19:57.983Z,1016.32
2017-06-01T00:20:57.968Z,1016.3
2017-06-01T00:21:57.948Z,1016.32
2017-06-01T00:22:57.935Z,1016.31
2017-06-01T00:23:57.917Z,1016.34
2017-06-01T00:24:57.901Z,1016.33
2017-06-01T00:25:57.886Z,1016.33
2017-06-01T00:26:57.870Z,1016.35
2017-06-01T00:27:57.853Z,1016.34
2017-06-01T00:28:57.841Z,1016.33
2017-06-01T00:29:57.822Z,1016.34
2017-06-01T00:30:57.801Z,1016.31
2017-06-01T00:31:57.791Z,1016.36
2017-06-01T00:32:57.769Z,1016.31
2017-06-01T00:33:57.753Z,1016.29
2017-06-01T00:34:57.737Z,1016.32
2017-06-01T00:35:57.720Z,1016.3
2017-06-01T00:36:57.707Z,1016.29
2017-06-01T00:37:57.690Z,1016.25
2017-06-01T00:38:57.672Z,1016.24
2017-06-01T00:39:57.655Z,1016.22
2017-06-01T00:40:57.642Z,1016.19
2017-06-01T00:41:57.624Z,1016.17
2017-06-01T00:42:57.620Z,1016.22
2017-06-01T00:43:57.587Z,1016.23
2017-06-01T00:44:57.571Z,1016.21
2017-06-01T00:45:57.559Z,1016.18
2017-06-01T00:46:57.543Z,1016.2
2017-06-01T00:47:57.525Z,1016.2
2017-06-01T00:48:57.510Z,1016.18
2017-06-01T00:49:57.494Z,1016.2
2017-06-01T00:50:57.471Z,1016.21
2017-06-01T00:51:57.460Z,1016.18
2017-06-01T00:52:57.444Z,1016.21
2017-06-01T00:53:57.423Z,1016.21
2017-06-01T00:54:57.406Z,1016.2
2017-06-01T00:55:57.403Z,1016.21
2017-06-01T00:56:57.381Z,1016.22
2017-06-01T00:57:57.370Z,1016.23
2017-06-01T00:58:57.341Z,1016.22
2017-06-01T00:59:57.324Z,1016.23
2017-06-01T01:00:57.312Z,1016.23
2017-06-01T01:01:57.291Z,1016.24
2017-06-01T01:02:57.290Z,1016.24
2017-06-01T01:03:57.307Z,1016.24
2017-06-01T01:04:57.243Z,1016.22
2017-06-01T01:05:57.233Z,1016.24
2017-06-01T01:06:57.212Z,1016.28
2017-06-01T01:07:57.193Z,1016.28
2017-06-01T01:08:57.174Z,1016.27
2017-06-01T01:09:57.161Z,1016.28
2017-06-01T01:10:57.152Z,1016.29
2017-06-01T01:11:57.128Z,1016.32
2017-06-01T01:12:57.111Z,1016.28
2017-06-01T01:13:57.092Z,1016.31
2017-06-01T01:14:57.081Z,1016.29
2017-06-01T01:15:57.061Z,1016.25
2017-06-01T01:16:57.045Z,1016.24
2017-06-01T01:17:57.024Z,1016.25
2017-06-01T01:18:57.011Z,1016.24
2017-06-01T01:19:56.992Z,1016.23
2017-06-01T01:20:56.976Z,1016.21
2017-06-01T01:21:56.961Z,1016.25
2017-06-01T01:22:56.944Z,1016.24
2017-06-01T01:23:56.932Z,1016.26
2017-06-01T01:24:56.913Z,1016.23
2017-06-01T01:25:56.889Z,1016.23
2017-06-01T01:26:56.881Z,1016.21
2017-06-01T01:27:56.858Z,1016.19
2017-06-01T01:28:56.841Z,1016.19
2017-06-01T01:29:56.833Z,1016.16
2017-06-01T01:30:56.809Z,1016.13
2017-06-01T01:31:56.791Z,1016.16
2017-06-01T01:32:56.782Z,1016.17
2017-06-01T01:33:56.757Z,1016.21
2017-06-01T01:34:56.741Z,1016.19
2017-06-01T01:35:56.724Z,1016.18
2017-06-01T01:36:56.711Z,1016.16
2017-06-01T01:37:56.692Z,1016.19
2017-06-01T01:38:56.681Z,1016.14
2017-06-01T01:39:56.662Z,1016.13
2017-06-01T01:40:56.641Z,1016.14
2017-06-01T01:41:56.632Z,1016.14
2017-06-01T01:42:56.607Z,1016.16
2017-06-01T01:43:56.592Z,1016.18
2017-06-01T01:44:56.571Z,1016.16
2017-06-01T01:45:56.563Z,1016.19
2017-06-01T01:46:56.539Z,1016.2
2017-06-01T01:47:56.552Z,1016.22
2017-06-01T01:48:56.501Z,1016.21
2017-06-01T01:49:56.491Z,1016.22
2017-06-01T01:50:56.472Z,1016.23
2017-06-01T01:51:56.452Z,1016.24
2017-06-01T01:52:56.440Z,1016.19
2017-06-01T01:53:56.419Z,1016.19
2017-06-01T01:54:56.398Z,1016.21
2017-06-01T01:55:56.457Z,1016.18
2017-06-01T01:56:56.420Z,1016.19
2017-06-01T01:57:56.358Z,1016.19
2017-06-01T01:58:56.337Z,1016.2
2017-06-01T01:59:56.321Z,1016.26
2017-06-01T02:00:56.300Z,1016.24
2017-06-01T02:01:56.284Z,1016.28
2017-06-01T02:02:56.266Z,1016.25
2017-06-01T02:03:56.351Z,1016.23
2017-06-01T02:04:56.229Z,1016.28
2017-06-01T02:05:56.230Z,1016.27
2017-06-01T02:06:56.195Z,1016.29
2017-06-01T02:07:56.240Z,1016.28
2017-06-01T02:08:56.182Z,1016.31
2017-06-01T02:09:56.189Z,1016.29
2017-06-01T02:10:56.126Z,1016.26
2017-06-01T02:11:56.186Z,1016.29
2017-06-01T02:12:56.099Z,1016.3
2017-06-01T02:13:56.083Z,1016.29
2017-06-01T02:14:56.060Z,1016.25
2017-06-01T02:15:56.052Z,1016.24
2017-06-01T02:16:56.036Z,1016.25
2017-06-01T02:17:56.041Z,1016.26
2017-06-01T02:18:55.990Z,1016.25
2017-06-01T02:19:56.073Z,1016.23
2017-06-01T02:20:55.962Z,1016.24
2017-06-01T02:21:55.941Z,1016.22
2017-06-01T02:22:55.919Z,1016.22
2017-06-01T02:23:55.953Z,1016.2
2017-06-01T02:24:55.885Z,1016.21
2017-06-01T02:25:55.872Z,1016.21
2017-06-01T02:26:55.849Z,1016.19
2017-06-01T02:27:55.842Z,1016.19
2017-06-01T02:28:55.817Z,1016.17
2017-06-01T02:29:55.802Z,1016.16
2017-06-01T02:30:55.780Z,1016.17
2017-06-01T02:31:55.764Z,1016.16
2017-06-01T02:32:55.746Z,1016.12
2017-06-01T02:33:55.731Z,1016.18
2017-06-01T02:34:55.719Z,1016.17
2017-06-01T02:35:55.695Z,1016.13
2017-06-01T02:36:55.679Z,1016.13
2017-06-01T02:37:55.657Z,1016.1
2017-06-01T02:38:55.642Z,1016.1
2017-06-01T02:39:55.625Z,1016.1
2017-06-01T02:40:55.609Z,1016.09
2017-06-01T02:41:55.591Z,1016.06
2017-06-01T02:42:55.579Z,1016.08
2017-06-01T02:43:55.558Z,1016.07
2017-06-01T02:44:55.539Z,1016.03
2017-06-01T02:45:55.525Z,1016.04
2017-06-01T02:46:55.510Z,1016.05
2017-06-01T02:47:55.486Z,1016.06
2017-06-01T02:48:55.473Z,1016.05
2017-06-01T02:49:55.457Z,1016.07
2017-06-01T02:50:55.437Z,1016.09
2017-06-01T02:51:55.421Z,1016.11
2017-06-01T02:52:55.400Z,1016.14
2017-06-01T02:53:55.391Z,1016.1
2017-06-01T02:54:55.370Z,1016.1
2017-06-01T02:55:55.351Z,1016.13
2017-06-01T02:56:55.335Z,1016.15
2017-06-01T02:57:55.313Z,1016.12
2017-06-01T02:58:55.292Z,1016.18
2017-06-01T02:59:55.280Z,1016.21
2017-06-01T03:00:55.269Z,1016.18
2017-06-01T03:01:55.252Z,1016.2
2017-06-01T03:02:55.230Z,1016.21
2017-06-01T03:03:55.210Z,1016.2
2017-06-01T03:04:55.200Z,1016.19
2017-06-01T03:05:55.172Z,1016.23
2017-06-01T03:06:55.155Z,1016.23
2017-06-01T03:07:55.140Z,1016.2
2017-06-01T03:08:55.120Z,1016.22
2017-06-01T03:09:55.100Z,1016.2
2017-06-01T03:10:55.091Z,1016.17
2017-06-01T03:11:55.078Z,1016.18
2017-06-01T03:12:55.052Z,1016.2
2017-06-01T03:13:55.085Z,1016.19
2017-06-01T03:14:55.018Z,1016.23
2017-06-01T03:15:54.997Z,1016.23
2017-06-01T03:16:54.980Z,1016.2
2017-06-01T03:17:54.966Z,1016.23
2017-06-01T03:18:54.949Z,1016.26
2017-06-01T03:19:54.930Z,1016.22
2017-06-01T03:20:54.910Z,1016.25
2017-06-01T03:21:54.899Z,1016.24
2017-06-01T03:22:54.880Z,1016.24
2017-06-01T03:23:54.860Z,1016.23
2017-06-01T03:24:54.840Z,1016.22
2017-06-01T03:25:54.829Z,1016.25
2017-06-01T03:26:54.803Z,1016.25
2017-06-01T03:27:54.790Z,1016.22
2017-06-01T03:28:54.770Z,1016.21
2017-06-01T03:29:54.759Z,1016.21
2017-06-01T03:30:54.739Z,1016.23
2017-06-01T03:31:54.714Z,1016.22
2017-06-01T03:32:54.698Z,1016.22
2017-06-01T03:33:54.682Z,1016.21
2017-06-01T03:34:54.668Z,1016.22
2017-06-01T03:35:54.651Z,1016.22
2017-06-01T03:36:54.628Z,1016.16
2017-06-01T03:37:54.609Z,1016.21
2017-06-01T03:38:54.599Z,1016.2
2017-06-01T03:39:54.573Z,1016.22
2017-06-01T03:40:54.557Z,1016.25
2017-06-01T03:41:54.538Z,1016.29
2017-06-01T03:42:54.521Z,1016.26
2017-06-01T03:43:54.510Z,1016.25
2017-06-01T03:44:54.488Z,1016.26
2017-06-01T03:45:54.468Z,1016.28
2017-06-01T03:46:54.459Z,1016.25
2017-06-01T03:47:54.442Z,1016.29
2017-06-01T03:48:54.415Z,1016.29
2017-06-01T03:49:54.403Z,1016.26
2017-06-01T03:50:54.389Z,1016.28
2017-06-01T03:51:54.369Z,1016.29
2017-06-01T03:52:54.351Z,1016.31
2017-06-01T03:53:54.329Z,1016.29
2017-06-01T03:54:54.311Z,1016.3
2017-06-01T03:55:54.294Z,1016.29
2017-06-01T03:56:54.275Z,1016.31
2017-06-01T03:57:54.258Z,1016.34
2017-06-01T03:58:54.242Z,1016.34
2017-06-01T03:59:54.222Z,1016.36
2017-06-01T04:00:54.211Z,1016.34
2017-06-01T04:01:54.187Z,1016.38
2017-06-01T04:02:54.169Z,1016.38
2017-06-01T04:03:54.151Z,1016.42
2017-06-01T04:04:54.139Z,1016.42
2017-06-01T04:05:54.117Z,1016.4
2017-06-01T04:06:54.098Z,1016.44
2017-06-01T04:07:54.080Z,1016.44
2017-06-01T04:08:54.084Z,1016.44
2017-06-01T04:09:54.052Z,1016.44
2017-06-01T04:10:54.028Z,1016.48
2017-06-01T04:11:54.010Z,1016.47
2017-06-01T04:12:53.995Z,1016.48
2017-06-01T04:13:53.974Z,1016.44
2017-06-01T04:14:53.971Z,1016.46
2017-06-01T04:15:53.938Z,1016.48
2017-06-01T04:16:53.929Z,1016.49
2017-06-01T04:17:53.907Z,1016.5
2017-06-01T04:18:53.888Z,1016.55
2017-06-01T04:19:53.870Z,1016.49
2017-06-01T04:20:53.860Z,1016.51
2017-06-01T04:21:53.834Z,1016.5
2017-06-01T04:22:53.818Z,1016.51
2017-06-01T04:23:53.797Z,1016.53
2017-06-01T04:24:53.790Z,1016.46
2017-06-01T04:25:53.762Z,1016.5
2017-06-01T04:26:53.748Z,1016.5
2017-06-01T04:27:53.731Z,1016.46
2017-06-01T04:28:53.718Z,1016.48
2017-06-01T04:29:53.692Z,1016.5
2017-06-01T04:30:53.674Z,1016.46
2017-06-01T04:31:53.661Z,1016.47
2017-06-01T04:32:53.640Z,1016.41
2017-06-01T04:33:53.628Z,1016.45
2017-06-01T04:34:53.611Z,1016.45
2017-06-01T04:35:53.588Z,1016.46
2017-06-01T04:36:53.570Z,1016.45
2017-06-01T04:37:53.553Z,1016.46
2017-06-01T04:38:53.538Z,1016.48
2017-06-01T04:39:53.519Z,1016.48
2017-06-01T04:40:53.503Z,1016.48
2017-06-01T04:41:53.482Z,1016.5
2017-06-01T04:42:53.478Z,1016.49
2017-06-01T04:43:53.447Z,1016.46
2017-06-01T04:44:53.428Z,1016.52
2017-06-01T04:45:53.410Z,1016.51
2017-06-01T04:46:53.395Z,1016.5
2017-06-01T04:47:53.380Z,1016.54
2017-06-01T04:48:53.360Z,1016.58
2017-06-01T04:49:53.342Z,1016.6
2017-06-01T04:50:53.326Z,1016.63
2017-06-01T04:51:53.308Z,1016.64
2017-06-01T04:52:53.288Z,1016.68
2017-06-01T04:53:53.278Z,1016.69
2017-06-01T04:54:53.256Z,1016.71
2017-06-01T04:55:53.237Z,1016.69
2017-06-01T04:56:53.218Z,1016.71
2017-06-01T04:57:53.209Z,1016.72
2017-06-01T04:58:53.183Z,1016.7
2017-06-01T04:59:53.169Z,1016.69
2017-06-01T05:00:53.151Z,1016.68
2017-06-01T05:01:53.137Z,1016.68
2017-06-01T05:02:53.116Z,1016.67
2017-06-01T05:03:53.096Z,1016.72
2017-06-01T05:04:53.077Z,1016.76
2017-06-01T05:05:53.235Z,1016.79
2017-06-01T05:06:53.052Z,1016.73
2017-06-01T05:07:53.026Z,1016.71
2017-06-01T05:08:53.010Z,1016.71
2017-06-01T05:09:52.996Z,1016.77
2017-06-01T05:10:52.982Z,1016.76
2017-06-01T05:11:52.970Z,1016.76
2017-06-01T05:12:52.952Z,1016.76
2017-06-01T05:13:52.924Z,1016.77
2017-06-01T05:14:52.910Z,1016.79
2017-06-01T05:15:52.890Z,1016.81
2017-06-01T05:16:52.877Z,1016.81
2017-06-01T05:17:52.852Z,1016.83
2017-06-01T05:18:52.839Z,1016.83
2017-06-01T05:19:52.820Z,1016.84
2017-06-01T05:20:52.803Z,1016.84
2017-06-01T05:21:52.790Z,1016.82
2017-06-01T05:22:52.769Z,1016.83
2017-06-01T05:23:52.752Z,1016.83
2017-06-01T05:24:52.760Z,1016.83
2017-06-01T05:25:52.725Z,1016.85
2017-06-01T05:26:52.706Z,1016.82
2017-06-01T05:27:52.679Z,1016.81
2017-06-01T05:28:52.662Z,1016.85
2017-06-01T05:29:52.644Z,1016.84
2017-06-01T05:30:52.631Z,1016.85
2017-06-01T05:31:52.672Z,1016.85
2017-06-01T05:32:52.593Z,1016.84
2017-06-01T05:33:52.579Z,1016.85
2017-06-01T05:34:52.569Z,1016.84
2017-06-01T05:35:52.546Z,1016.83
2017-06-01T05:36:52.527Z,1016.85
2017-06-01T05:37:52.506Z,1016.85
2017-06-01T05:38:52.493Z,1016.81
2017-06-01T05:39:52.477Z,1016.83
2017-06-01T05:40:52.458Z,1016.79
2017-06-01T05:41:52.438Z,1016.83
2017-06-01T05:42:52.421Z,1016.78
2017-06-01T05:43:52.410Z,1016.81
2017-06-01T05:44:52.400Z,1016.83
2017-06-01T05:45:52.378Z,1016.82
2017-06-01T05:46:52.424Z,1016.82
2017-06-01T05:47:52.340Z,1016.84
2017-06-01T05:48:52.441Z,1016.85
2017-06-01T05:49:52.309Z,1016.84
2017-06-01T05:50:52.289Z,1016.84
2017-06-01T05:51:52.278Z,1016.81
2017-06-01T05:52:52.257Z,1016.81
2017-06-01T05:53:52.238Z,1016.85
2017-06-01T05:54:52.220Z,1016.86
2017-06-01T05:55:52.200Z,1016.85
2017-06-01T05:56:52.355Z,1016.87
2017-06-01T05:57:52.171Z,1016.9
2017-06-01T05:58:52.161Z,1016.88
2017-06-01T05:59:52.139Z,1016.87
2017-06-01T06:00:52.129Z,1016.91
2017-06-01T06:01:52.101Z,1016.86
2017-06-01T06:02:52.171Z,1016.87
2017-06-01T06:03:52.068Z,1016.87
2017-06-01T06:04:52.054Z,1016.85
2017-06-01T06:05:52.035Z,1016.87
2017-06-01T06:06:52.019Z,1016.91
2017-06-01T06:07:52.005Z,1016.91
2017-06-01T06:08:51.986Z,1016.93
2017-06-01T06:09:51.973Z,1016.93
2017-06-01T06:10:51.959Z,1016.89
2017-06-01T06:11:51.938Z,1016.9
2017-06-01T06:12:51.918Z,1016.89
2017-06-01T06:13:51.903Z,1016.89
2017-06-01T06:14:51.888Z,1016.91
2017-06-01T06:15:51.872Z,1016.93
2017-06-01T06:16:51.850Z,1016.94
2017-06-01T06:17:51.830Z,1016.97
2017-06-01T06:18:51.817Z,1016.94
2017-06-01T06:19:51.801Z,1016.94
2017-06-01T06:20:51.785Z,1016.95
2017-06-01T06:21:51.770Z,1016.95
2017-06-01T06:22:51.753Z,1016.95
2017-06-01T06:23:51.739Z,1016.97
2017-06-01T06:24:51.721Z,1016.97
2017-06-01T06:25:51.705Z,1016.95
2017-06-01T06:26:51.690Z,1016.97
2017-06-01T06:27:51.674Z,1016.97
2017-06-01T06:28:51.650Z,1017.01
2017-06-01T06:29:51.893Z,1016.99
2017-06-01T06:30:51.622Z,1017.04
2017-06-01T06:31:51.604Z,1017.03
2017-06-01T06:32:51.591Z,1017.05
2017-06-01T06:33:51.571Z,1017.04
2017-06-01T06:34:51.551Z,1017.06
2017-06-01T06:35:51.534Z,1017.08
2017-06-01T06:36:51.522Z,1017.11
2017-06-01T06:37:51.500Z,1017.1
2017-06-01T06:38:51.490Z,1017.13
2017-06-01T06:39:51.469Z,1017.11
2017-06-01T06:40:51.464Z,1017.12
2017-06-01T06:41:51.440Z,1017.12
2017-06-01T06:42:51.420Z,1017.15
2017-06-01T06:43:51.408Z,1017.11
2017-06-01T06:44:51.392Z,1017.15
2017-06-01T06:45:51.371Z,1017.16
2017-06-01T06:46:51.356Z,1017.14
2017-06-01T06:47:51.344Z,1017.15
2017-06-01T06:48:51.331Z,1017.15
2017-06-01T06:49:51.312Z,1017.14
2017-06-01T06:50:51.293Z,1017.11
2017-06-01T06:51:51.281Z,1017.14
2017-06-01T06:52:51.260Z,1017.12
2017-06-01T06:53:51.242Z,1017.08
2017-06-01T06:54:51.226Z,1017.11
2017-06-01T06:55:51.212Z,1017.08
2017-06-01T06:56:51.200Z,1017.07
2017-06-01T06:57:51.176Z,1017.07
2017-06-01T06:58:51.170Z,1017.09
2017-06-01T06:59:51.148Z,1017.08
2017-06-01T07:00:51.137Z,1017.05
2017-06-01T07:01:51.126Z,1017.07
2017-06-01T07:02:51.161Z,1017.06
2017-06-01T07:03:51.085Z,1017.06
2017-06-01T07:04:51.064Z,1017.08
2017-06-01T07:05:51.052Z,1017.08
2017-06-01T07:06:51.032Z,1017.06
2017-06-01T07:07:51.021Z,1017.07
2017-06-01T07:08:51.009Z,1017.07
2017-06-01T07:09:50.990Z,1017.06
2017-06-01T07:10:50.971Z,1017.09
2017-06-01T07:11:50.955Z,1017.07
2017-06-01T07:12:50.941Z,1017.04
2017-06-01T07:13:50.931Z,1017.05
2017-06-01T07:14:50.913Z,1017.05
2017-06-01T07:15:50.903Z,1017.08
2017-06-01T07:16:50.881Z,1017.06
2017-06-01T07:17:50.862Z,1017.04
2017-06-01T07:18:50.853Z,1017.09
2017-06-01T07:19:50.832Z,1017.09
2017-06-01T07:20:50.821Z,1017.09
2017-06-01T07:21:50.802Z,1017.09
2017-06-01T07:22:50.787Z,1017.08
2017-06-01T07:23:50.773Z,1017.05
2017-06-01T07:24:50.763Z,1017.07
2017-06-01T07:25:50.741Z,1017.05
2017-06-01T07:26:50.729Z,1017.02
2017-06-01T07:27:50.712Z,1017.02
2017-06-01T07:28:50.702Z,1017.01
2017-06-01T07:29:50.679Z,1017.01
2017-06-01T07:30:50.670Z,1017
2017-06-01T07:31:50.653Z,1016.99
2017-06-01T07:32:50.639Z,1016.99
2017-06-01T07:33:50.681Z,1017
2017-06-01T07:34:50.612Z,1017.01
2017-06-01T07:35:50.591Z,1017
2017-06-01T07:36:50.583Z,1017.01
2017-06-01T07:37:50.563Z,1016.98
2017-06-01T07:38:50.548Z,1017
2017-06-01T07:39:50.531Z,1016.95
2017-06-01T07:40:50.527Z,1016.97
2017-06-01T07:41:50.511Z,1016.94
2017-06-01T07:42:50.493Z,1016.95
2017-06-01T07:43:50.481Z,1016.96
2017-06-01T07:44:50.466Z,1016.98
2017-06-01T07:45:50.449Z,1016.99
2017-06-01T07:46:50.436Z,1016.95
2017-06-01T07:47:50.422Z,1016.94
2017-06-01T07:48:50.407Z,1016.91
2017-06-01T07:49:50.396Z,1016.92
2017-06-01T07:50:50.377Z,1016.91
2017-06-01T07:51:50.361Z,1016.93
2017-06-01T07:52:50.350Z,1016.94
2017-06-01T07:53:50.334Z,1016.95
2017-06-01T07:54:50.324Z,1016.94
2017-06-01T07:55:50.313Z,1016.95
2017-06-01T07:56:50.293Z,1016.92
2017-06-01T07:57:50.280Z,1016.88
2017-06-01T07:58:50.262Z,1016.9
2017-06-01T07:59:50.249Z,1016.91
2017-06-01T08:00:50.242Z,1016.91
2017-06-01T08:01:50.219Z,1016.92
2017-06-01T08:02:50.209Z,1016.93
2017-06-01T08:03:50.209Z,1016.93
2017-06-01T08:04:50.181Z,1016.92
2017-06-01T08:05:50.175Z,1016.97
2017-06-01T08:06:50.151Z,1016.94
2017-06-01T08:07:50.144Z,1016.98
2017-06-01T08:08:50.131Z,1016.99
2017-06-01T08:09:50.113Z,1016.99
2017-06-01T08:10:50.107Z,1017.06
2017-06-01T08:11:50.096Z,1017.04
2017-06-01T08:12:50.075Z,1017.02
2017-06-01T08:13:50.062Z,1017.04
2017-06-01T08:14:50.053Z,1017.02
2017-06-01T08:15:50.032Z,1017.02
2017-06-01T08:16:50.021Z,1017.02
2017-06-01T08:17:50.013Z,1017.01
2017-06-01T08:18:49.993Z,1017.01
2017-06-01T08:19:49.979Z,1016.99
2017-06-01T08:20:49.969Z,1016.96
2017-06-01T08:21:49.960Z,1017
2017-06-01T08:22:49.943Z,1016.97
2017-06-01T08:23:49.931Z,1016.97
2017-06-01T08:24:49.916Z,1016.92
2017-06-01T08:25:49.907Z,1016.95
2017-06-01T08:26:49.891Z,1016.98
2017-06-01T08:27:49.875Z,1016.94
2017-06-01T08:28:49.863Z,1016.97
2017-06-01T08:29:49.853Z,1016.98
2017-06-01T08:30:49.838Z,1017.01
2017-06-01T08:31:49.832Z,1017.01
2017-06-01T08:32:49.821Z,1016.97
2017-06-01T08:33:49.801Z,1016.99
2017-06-01T08:34:49.788Z,1016.97
2017-06-01T08:35:49.780Z,1016.96
2017-06-01T08:36:49.767Z,1016.98
2017-06-01T08:37:49.752Z,1016.91
2017-06-01T08:38:49.742Z,1016.91
2017-06-01T08:39:49.731Z,1016.94
2017-06-01T08:40:49.714Z,1016.94
2017-06-01T08:41:49.710Z,1016.96
2017-06-01T08:42:49.693Z,1016.94
2017-06-01T08:43:49.681Z,1016.97
2017-06-01T08:44:49.671Z,1017.01
2017-06-01T08:45:49.655Z,1016.99
2017-06-01T08:46:49.645Z,1017.01
2017-06-01T08:47:49.638Z,1017.05
2017-06-01T08:48:49.621Z,1017.14
2017-06-01T08:49:49.614Z,1017.21
2017-06-01T08:50:49.600Z,1017.24
2017-06-01T08:51:49.589Z,1017.23
2017-06-01T08:52:49.580Z,1017.24
2017-06-01T08:53:49.572Z,1017.25
2017-06-01T08:54:49.562Z,1017.24
2017-06-01T08:55:49.565Z,1017.22
2017-06-01T08:56:49.543Z,1017.25
2017-06-01T08:57:49.530Z,1017.25
2017-06-01T08:58:49.523Z,1017.25
2017-06-01T08:59:49.502Z,1017.26
2017-06-01T09:00:49.496Z,1017.29
2017-06-01T09:01:49.493Z,1017.28
2017-06-01T09:02:49.475Z,1017.27
2017-06-01T09:03:49.464Z,1017.22
2017-06-01T09:04:49.462Z,1017.22
2017-06-01T09:05:49.452Z,1017.18
2017-06-01T09:06:49.439Z,1017.2
2017-06-01T09:07:49.429Z,1017.17
2017-06-01T09:08:49.420Z,1017.19
2017-06-01T09:09:49.413Z,1017.2
2017-06-01T09:10:49.400Z,1017.14
2017-06-01T09:11:49.393Z,1017.13
2017-06-01T09:12:49.391Z,1017.17
2017-06-01T09:13:49.377Z,1017.17
2017-06-01T09:14:49.372Z,1017.22
2017-06-01T09:15:49.362Z,1017.25
2017-06-01T09:16:49.360Z,1017.28
2017-06-01T09:17:49.346Z,1017.28
2017-06-01T09:18:49.340Z,1017.25
2017-06-01T09:19:49.333Z,1017.26
2017-06-01T09:20:49.329Z,1017.19
2017-06-01T09:21:49.323Z,1017.19
2017-06-01T09:22:49.314Z,1017.18
2017-06-01T09:23:49.314Z,1017.15
2017-06-01T09:24:49.305Z,1017.17
2017-06-01T09:25:49.296Z,1017.1
2017-06-01T09:26:49.292Z,1017.1
2017-06-01T09:27:49.286Z,1017.04
2017-06-01T09:28:49.284Z,1017.04
2017-06-01T09:29:49.280Z,1017.04
2017-06-01T09:30:49.270Z,1017.06
2017-06-01T09:31:49.262Z,1017.05
2017-06-01T09:32:49.255Z,1017.06
2017-06-01T09:33:49.251Z,1016.99
2017-06-01T09:34:49.253Z,1016.98
2017-06-01T09:35:49.245Z,1016.93
2017-06-01T09:36:49.241Z,1016.94
2017-06-01T09:37:49.233Z,1016.9
2017-06-01T09:38:49.231Z,1016.94
2017-06-01T09:39:49.225Z,1016.89
2017-06-01T09:40:49.220Z,1016.9
2017-06-01T09:41:49.226Z,1016.92
2017-06-01T09:42:49.221Z,1016.91
2017-06-01T09:43:49.207Z,1016.89
2017-06-01T09:44:49.204Z,1016.89
2017-06-01T09:45:49.209Z,1016.92
2017-06-01T09:46:49.203Z,1016.91
2017-06-01T09:47:49.195Z,1016.91
2017-06-01T09:48:49.190Z,1016.83
2017-06-01T09:49:49.188Z,1016.79
2017-06-01T09:50:49.193Z,1016.82
2017-06-01T09:51:49.233Z,1016.8
2017-06-01T09:52:49.181Z,1016.8
2017-06-01T09:53:49.221Z,1016.82
2017-06-01T09:54:49.171Z,1016.85
2017-06-01T09:55:49.169Z,1016.89
2017-06-01T09:56:49.166Z,1016.83
2017-06-01T09:57:49.161Z,1016.82
2017-06-01T09:58:49.360Z,1016.86
2017-06-01T09:59:49.150Z,1016.83
2017-06-01T10:00:49.151Z,1016.79
2017-06-01T10:01:49.153Z,1016.81
2017-06-01T10:02:49.141Z,1016.77
2017-06-01T10:03:49.137Z,1016.8
2017-06-01T10:04:49.129Z,1016.76
2017-06-01T10:05:49.126Z,1016.73
2017-06-01T10:06:49.121Z,1016.71
2017-06-01T10:07:49.125Z,1016.69
2017-06-01T10:08:49.122Z,1016.69
2017-06-01T10:09:49.109Z,1016.71
2017-06-01T10:10:49.107Z,1016.68
2017-06-01T10:11:49.109Z,1016.7
2017-06-01T10:12:49.099Z,1016.71
2017-06-01T10:13:49.092Z,1016.69
2017-06-01T10:14:49.092Z,1016.72
2017-06-01T10:15:49.091Z,1016.67
2017-06-01T10:16:49.090Z,1016.69
2017-06-01T10:17:49.079Z,1016.66
2017-06-01T10:18:49.083Z,1016.66
2017-06-01T10:19:49.070Z,1016.65
2017-06-01T10:20:49.139Z,1016.64
2017-06-01T10:21:49.060Z,1016.66
2017-06-01T10:22:49.078Z,1016.59
2017-06-01T10:23:49.050Z,1016.57
2017-06-01T10:24:49.046Z,1016.6
2017-06-01T10:25:49.049Z,1016.55
2017-06-01T10:26:49.043Z,1016.57
2017-06-01T10:27:49.041Z,1016.51
2017-06-01T10:28:49.080Z,1016.53
2017-06-01T10:29:49.029Z,1016.47
2017-06-01T10:30:49.023Z,1016.46
2017-06-01T10:31:49.017Z,1016.45
2017-06-01T10:32:49.009Z,1016.46
2017-06-01T10:33:49.016Z,1016.45
2017-06-01T10:34:49.010Z,1016.44
2017-06-01T10:35:48.999Z,1016.38
2017-06-01T10:36:48.986Z,1016.39
2017-06-01T10:37:48.986Z,1016.39
2017-06-01T10:38:48.980Z,1016.36
2017-06-01T10:39:48.971Z,1016.36
2017-06-01T10:40:48.970Z,1016.45
2017-06-01T10:41:48.957Z,1016.39
2017-06-01T10:42:48.957Z,1016.42
2017-06-01T10:43:48.950Z,1016.36
2017-06-01T10:44:48.951Z,1016.3
2017-06-01T10:45:48.938Z,1016.28
2017-06-01T10:46:48.935Z,1016.27
2017-06-01T10:47:48.925Z,1016.24
2017-06-01T10:48:48.921Z,1016.28
2017-06-01T10:49:48.919Z,1016.22
2017-06-01T10:50:48.904Z,1016.25
2017-06-01T10:51:48.934Z,1016.22
2017-06-01T10:52:48.889Z,1016.24
2017-06-01T10:53:48.989Z,1016.25
2017-06-01T10:54:48.881Z,1016.22
2017-06-01T10:55:48.882Z,1016.23
2017-06-01T10:56:48.866Z,1016.19
2017-06-01T10:57:48.913Z,1016.21
2017-06-01T10:58:48.861Z,1016.18
2017-06-01T10:59:48.852Z,1016.13
2017-06-01T11:00:48.843Z,1016.15
2017-06-01T11:01:48.837Z,1016.12
2017-06-01T11:02:48.827Z,1016.11
2017-06-01T11:03:48.868Z,1016.09
2017-06-01T11:04:48.811Z,1016.11
2017-06-01T11:05:48.814Z,1016.1
2017-06-01T11:06:48.800Z,1016.12
2017-06-01T11:07:48.793Z,1016.09
2017-06-01T11:08:48.793Z,1016.11
2017-06-01T11:09:48.790Z,1016.07
2017-06-01T11:10:48.772Z,1016.08
2017-06-01T11:11:48.766Z,1016.09
2017-06-01T11:12:48.757Z,1016.1
2017-06-01T11:13:48.751Z,1016.08
2017-06-01T11:14:48.745Z,1016.06
2017-06-01T11:15:48.740Z,1016.06
2017-06-01T11:16:48.732Z,1016.09
2017-06-01T11:17:48.723Z,1016.04
2017-06-01T11:18:48.722Z,1016
2017-06-01T11:19:48.711Z,1015.99
2017-06-01T11:20:48.701Z,1015.96
2017-06-01T11:21:48.699Z,1015.97
2017-06-01T11:22:48.692Z,1015.98
2017-06-01T11:23:48.684Z,1015.95
2017-06-01T11:24:48.681Z,1015.92
2017-06-01T11:25:48.670Z,1015.92
2017-06-01T11:26:48.661Z,1015.94
2017-06-01T11:27:48.653Z,1015.93
2017-06-01T11:28:48.660Z,1015.95
2017-06-01T11:29:48.640Z,1015.95
2017-06-01T11:30:48.635Z,1015.88
2017-06-01T11:31:48.627Z,1015.88
2017-06-01T11:32:48.629Z,1015.87
2017-06-01T11:33:48.614Z,1015.85
2017-06-01T11:34:48.619Z,1015.87
2017-06-01T11:35:48.602Z,1015.87
2017-06-01T11:36:48.703Z,1015.87
2017-06-01T11:37:48.589Z,1015.82
2017-06-01T11:38:48.683Z,1015.84
2017-06-01T11:39:48.580Z,1015.84
2017-06-01T11:40:48.621Z,1015.82
2017-06-01T11:41:48.560Z,1015.86
2017-06-01T11:42:48.560Z,1015.9
2017-06-01T11:43:48.546Z,1015.85
2017-06-01T11:44:48.543Z,1015.83
2017-06-01T11:45:48.541Z,1015.83
2017-06-01T11:46:48.526Z,1015.85
2017-06-01T11:47:48.522Z,1015.83
2017-06-01T11:48:48.520Z,1015.78
2017-06-01T11:49:48.507Z,1015.79
2017-06-01T11:50:48.498Z,1015.81
2017-06-01T11:51:48.492Z,1015.74
2017-06-01T11:52:48.492Z,1015.75
2017-06-01T11:53:48.481Z,1015.72
2017-06-01T11:54:48.478Z,1015.73
2017-06-01T11:55:48.470Z,1015.72
2017-06-01T11:56:48.461Z,1015.72
2017-06-01T11:57:48.454Z,1015.72
2017-06-01T11:58:48.450Z,1015.69
2017-06-01T11:59:48.440Z,1015.71
2017-06-01T12:00:48.436Z,1015.74
2017-06-01T12:01:48.431Z,1015.73
2017-06-01T12:02:48.423Z,1015.76
2017-06-01T12:03:48.417Z,1015.7
2017-06-01T12:04:48.409Z,1015.72
2017-06-01T12:05:48.409Z,1015.77
2017-06-01T12:06:48.404Z,1015.76
2017-06-01T12:07:48.414Z,1015.75